Time;durP1;ratioP1;P1;durP2;ratioP2;P2;SDS_P1;SDS_P2;PMS_P1;PMS_P2;Temp;Humidity;BMP_temperature;BMP_pressure;BME280_temperature;BME280_humidity;BME280_pressure;Samples;Min_cycle;Max_cycle;Signal;HPM_P1;HPM_P2
2021/05/16 00:01:16;;;;;;;6.60;4.85;;;;;;;16.01;62.48;99308.59;5049725;28;20500;-21
2021/05/16 00:03:42;;;;;;;7.10;4.88;;;;;;;15.72;64.07;99289.56;5049342;28;20837;-23
2021/05/16 00:06:07;;;;;;;7.47;5.30;;;;;;;15.57;64.07;99303.78;5049322;28;20486;-22
2021/05/16 00:08:33;;;;;;;7.95;4.88;;;;;;;15.43;64.72;99307.03;5049033;28;20091;-23
2021/05/16 00:10:59;;;;;;;6.82;4.93;;;;;;;15.55;64.31;99306.78;5049690;28;20055;-22
2021/05/16 00:13:24;;;;;;;8.20;4.72;;;;;;;15.98;62.26;99301.88;5049422;28;20435;-23
2021/05/16 00:15:50;;;;;;;9.77;4.60;;;;;;;15.56;63.74;99308.38;5049190;28;20104;-22
2021/05/16 00:18:16;;;;;;;9.38;5.13;;;;;;;15.46;64.02;99303.00;5031031;28;20065;-22
2021/05/16 00:20:41;;;;;;;8.77;4.88;;;;;;;14.99;65.98;99301.38;5049013;28;20458;-22
2021/05/16 00:23:07;;;;;;;7.25;4.93;;;;;;;15.01;66.05;99309.97;5049169;28;20102;-22
2021/05/16 00:25:32;;;;;;;11.25;5.00;;;;;;;14.74;67.32;99307.50;5049330;28;20024;-21
2021/05/16 00:27:58;;;;;;;7.60;5.60;;;;;;;14.92;67.34;99316.94;5049468;28;20473;-23
2021/05/16 00:30:25;;;;;;;12.02;6.03;;;;;;;14.72;67.52;99310.44;5047795;28;20040;-22
2021/05/16 00:32:51;;;;;;;10.05;5.47;;;;;;;14.56;67.72;99314.97;5049206;28;20039;-22
2021/05/16 00:35:17;;;;;;;8.45;5.68;;;;;;;14.50;68.37;99307.13;5048755;28;20029;-22
2021/05/16 00:37:43;;;;;;;9.38;5.57;;;;;;;14.59;68.57;99319.03;5047594;28;20036;-21
2021/05/16 00:40:09;;;;;;;10.10;5.47;;;;;;;14.58;68.02;99322.75;5048949;28;20112;-21
2021/05/16 00:42:34;;;;;;;8.95;5.13;;;;;;;14.88;66.94;99318.56;5048757;28;20029;-21
2021/05/16 00:45:01;;;;;;;10.38;5.38;;;;;;;14.84;66.39;99316.38;5048952;28;20075;-22
2021/05/16 00:47:26;;;;;;;8.73;5.75;;;;;;;14.31;68.21;99310.28;5048858;28;20025;-22
2021/05/16 00:49:53;;;;;;;10.57;5.53;;;;;;;14.41;67.92;99313.00;5048730;28;20151;-21
2021/05/16 00:52:18;;;;;;;9.55;5.68;;;;;;;14.95;66.03;99311.03;5048193;28;20517;-22
2021/05/16 00:54:44;;;;;;;9.40;6.07;;;;;;;14.75;66.29;99295.69;5047262;28;20029;-22
2021/05/16 00:57:10;;;;;;;10.55;6.30;;;;;;;14.74;66.85;99311.00;5048544;28;20028;-22
2021/05/16 00:59:37;;;;;;;9.65;6.05;;;;;;;14.61;66.74;99316.88;5030684;28;20071;-22
2021/05/16 01:02:03;;;;;;;7.15;5.25;;;;;;;14.35;67.66;99289.13;5048100;28;20493;-22
2021/05/16 01:04:28;;;;;;;9.32;6.25;;;;;;;14.71;66.06;99297.28;5047936;28;20100;-22
2021/05/16 01:06:54;;;;;;;9.85;6.07;;;;;;;14.98;65.69;99305.94;5047061;28;20166;-22
2021/05/16 01:09:22;;;;;;;9.52;6.45;;;;;;;15.03;65.40;99305.94;5047212;28;20082;-21
2021/05/16 01:11:48;;;;;;;10.10;6.32;;;;;;;14.72;66.52;99313.13;5047841;28;20029;-22
2021/05/16 01:14:21;;;;;;;8.85;5.53;;;;;;;14.85;65.89;99315.34;5046709;28;20021;-22
2021/05/16 01:16:46;;;;;;;10.23;6.03;;;;;;;14.91;65.65;99312.63;5047019;28;20033;-22
2021/05/16 01:19:12;;;;;;;10.40;6.00;;;;;;;14.74;65.90;99313.69;5047828;28;20112;-22
2021/05/16 01:21:39;;;;;;;9.48;5.90;;;;;;;14.78;65.42;99301.34;5048158;28;20060;-21
2021/05/16 01:24:31;;;;;;;12.65;6.30;;;;;;;14.65;65.89;99326.00;5046820;28;20025;-22
2021/05/16 01:26:58;;;;;;;11.13;5.35;;;;;;;14.51;66.56;99324.88;5047619;28;20083;-23
2021/05/16 01:29:24;;;;;;;9.00;5.70;;;;;;;14.14;67.33;99301.63;5047853;28;20029;-22
2021/05/16 01:31:50;;;;;;;8.52;5.65;;;;;;;14.38;66.67;99305.47;5047801;28;20040;-22
2021/05/16 01:34:15;;;;;;;8.55;5.38;;;;;;;14.38;66.76;99320.75;5047593;28;20032;-22
2021/05/16 01:36:41;;;;;;;9.07;6.00;;;;;;;14.39;66.64;99315.16;5047929;28;20028;-22
2021/05/16 01:39:09;;;;;;;9.68;5.97;;;;;;;14.23;67.09;99308.09;5047800;28;20028;-22
2021/05/16 01:41:35;;;;;;;9.27;5.63;;;;;;;14.32;66.79;99293.09;5047754;28;20478;-22
2021/05/16 01:44:01;;;;;;;8.45;5.88;;;;;;;14.46;65.65;99296.94;5029947;28;20035;-22
2021/05/16 01:46:26;;;;;;;12.65;6.22;;;;;;;14.65;65.24;99320.66;5047474;28;20055;-21
2021/05/16 01:48:52;;;;;;;10.23;6.22;;;;;;;14.42;66.28;99322.66;5047736;28;20493;-22
2021/05/16 01:51:19;;;;;;;10.60;6.50;;;;;;;13.97;67.14;99304.47;5047340;28;20052;-22
2021/05/16 01:53:44;;;;;;;10.48;6.38;;;;;;;14.05;67.29;99320.88;5047728;28;20064;-22
2021/05/16 01:56:10;;;;;;;9.27;5.88;;;;;;;14.29;66.70;99319.66;5046272;28;20785;-21
2021/05/16 01:58:36;;;;;;;9.30;5.97;;;;;;;14.14;66.78;99315.00;5029342;28;20505;-23
2021/05/16 02:01:03;;;;;;;13.10;5.90;;;;;;;13.72;68.07;99316.66;5047393;28;20071;-22
2021/05/16 02:03:29;;;;;;;9.82;5.93;;;;;;;13.62;68.02;99297.84;5047378;28;20169;-22
2021/05/16 02:05:54;;;;;;;10.07;6.15;;;;;;;13.92;67.86;99318.66;5047283;28;20489;-22
2021/05/16 02:08:20;;;;;;;11.73;6.57;;;;;;;13.67;68.55;99324.69;5047059;28;20029;-21
2021/05/16 02:10:46;;;;;;;9.07;6.13;;;;;;;13.21;69.91;99322.38;5047733;28;20507;-22
2021/05/16 02:13:11;;;;;;;11.35;6.75;;;;;;;13.82;68.60;99329.31;5047424;28;20048;-22
2021/05/16 02:15:37;;;;;;;10.40;5.63;;;;;;;13.42;69.24;99341.34;5047170;28;20190;-22
2021/05/16 02:18:03;;;;;;;10.48;6.18;;;;;;;12.79;71.16;99309.69;5047260;28;20040;-22
2021/05/16 02:20:28;;;;;;;10.20;7.10;;;;;;;12.57;72.02;99330.31;5047124;28;20051;-22
2021/05/16 02:22:54;;;;;;;10.77;6.35;;;;;;;12.56;71.82;99324.13;5045086;28;20167;-22
2021/05/16 02:25:19;;;;;;;7.75;5.30;;;;;;;12.92;70.32;99332.56;5047093;28;20029;-23
2021/05/16 02:27:47;;;;;;;7.13;4.97;;;;;;;13.25;68.80;99315.47;5046863;28;20480;-22
2021/05/16 02:30:13;;;;;;;9.40;5.57;;;;;;;13.75;66.79;99312.66;5046714;28;20120;-22
2021/05/16 02:32:38;;;;;;;8.30;5.00;;;;;;;13.36;68.65;99332.47;5046887;28;20069;-22
2021/05/16 02:35:05;;;;;;;10.05;5.18;;;;;;;13.09;69.23;99326.28;5046881;28;20064;-22
2021/05/16 02:37:30;;;;;;;7.95;4.72;;;;;;;13.65;67.86;99324.94;5045830;28;20413;-22
2021/05/16 02:39:56;;;;;;;6.22;4.18;;;;;;;13.83;66.97;99338.97;5047147;28;20029;-21
2021/05/16 02:42:21;;;;;;;8.75;4.38;;;;;;;14.00;65.85;99322.75;5046778;28;20036;-22
2021/05/16 02:44:47;;;;;;;7.38;4.43;;;;;;;13.98;66.35;99336.41;5028983;28;20083;-22
2021/05/16 02:47:13;;;;;;;9.25;4.60;;;;;;;14.47;64.44;99329.94;5047488;28;20029;-23
2021/05/16 02:49:38;;;;;;;7.85;4.45;;;;;;;14.35;64.41;99332.84;5046814;28;20029;-28
2021/05/16 02:52:04;;;;;;;19.88;6.55;;;;;;;14.60;63.69;99336.72;5046945;28;20198;-21
2021/05/16 02:54:29;;;;;;;11.10;5.13;;;;;;;13.79;66.89;99335.19;5046632;28;20041;-21
2021/05/16 02:56:55;;;;;;;8.05;4.28;;;;;;;13.65;67.09;99341.00;5046626;28;20033;-22
2021/05/16 02:59:23;;;;;;;8.55;3.88;;;;;;;13.75;66.78;99334.09;5046668;28;20029;-21
2021/05/16 03:01:48;;;;;;;6.00;3.83;;;;;;;13.78;66.64;99337.06;5046857;28;20035;-22
2021/05/16 03:04:14;;;;;;;10.32;4.13;;;;;;;13.89;66.29;99339.81;5046641;28;20025;-21
2021/05/16 03:06:39;;;;;;;12.82;4.28;;;;;;;13.76;66.73;99325.00;5046663;28;20029;-21
2021/05/16 03:09:05;;;;;;;8.18;3.65;;;;;;;13.54;67.83;99339.28;5046673;28;20056;-21
2021/05/16 03:11:31;;;;;;;7.07;3.80;;;;;;;14.28;65.08;99342.97;5046556;28;20033;-22
2021/05/16 03:13:57;;;;;;;8.13;3.92;;;;;;;14.31;64.82;99341.66;5046612;28;20112;-21
2021/05/16 03:16:22;;;;;;;9.90;4.32;;;;;;;13.54;67.55;99341.97;5046392;28;20421;-22
2021/05/16 03:18:48;;;;;;;8.25;3.72;;;;;;;13.21;68.67;99335.78;5046721;28;20021;-21
2021/05/16 03:21:13;;;;;;;6.85;3.70;;;;;;;13.38;68.58;99350.94;5046833;28;20040;-21
2021/05/16 03:23:39;;;;;;;8.50;4.32;;;;;;;13.82;66.71;99356.13;5046445;28;20025;-22
2021/05/16 03:26:04;;;;;;;8.43;3.67;;;;;;;13.52;67.09;99330.72;5046424;28;20036;-21
2021/05/16 03:28:30;;;;;;;7.97;3.90;;;;;;;13.20;68.06;99360.94;5046090;28;20039;-21
2021/05/16 03:30:56;;;;;;;9.23;3.50;;;;;;;13.15;68.56;99339.47;5046763;28;20060;-21
2021/05/16 03:33:21;;;;;;;11.52;4.30;;;;;;;13.41;68.24;99348.56;5047537;28;20021;-21
2021/05/16 03:35:47;;;;;;;7.93;3.67;;;;;;;13.24;68.29;99335.28;5050085;28;20401;-21
2021/05/16 03:38:13;;;;;;;9.07;4.22;;;;;;;13.22;69.13;99358.81;5049994;28;20044;-21
2021/05/16 03:40:38;;;;;;;7.93;4.00;;;;;;;13.36;68.20;99353.06;5049816;28;20025;-21
2021/05/16 03:43:04;;;;;;;8.55;4.53;;;;;;;13.56;67.42;99355.13;5049744;28;20029;-23
2021/05/16 03:45:29;;;;;;;9.25;4.72;;;;;;;13.88;66.14;99360.47;5050003;28;20037;-24
2021/05/16 03:47:55;;;;;;;7.68;4.53;;;;;;;13.72;67.35;99362.22;5049955;28;20071;-23
2021/05/16 03:50:20;;;;;;;10.15;5.00;;;;;;;13.74;67.11;99344.00;5049354;28;20053;-23
2021/05/16 03:52:46;;;;;;;8.63;4.20;;;;;;;13.92;66.20;99361.56;5049932;28;20025;-23
2021/05/16 03:55:12;;;;;;;6.50;3.35;;;;;;;13.75;66.45;99355.53;5048791;28;20390;-23
2021/05/16 03:57:37;;;;;;;7.32;3.50;;;;;;;13.70;66.59;99363.53;5049786;28;20366;-21
2021/05/16 04:00:06;;;;;;;7.03;3.45;;;;;;;13.89;66.05;99343.28;5049835;28;20040;-21
2021/05/16 04:02:32;;;;;;;6.78;3.42;;;;;;;14.16;65.74;99369.19;5048710;28;20029;-22
2021/05/16 04:04:57;;;;;;;6.78;3.20;;;;;;;14.41;64.62;99361.28;5048338;28;20065;-21
2021/05/16 04:07:23;;;;;;;7.63;3.45;;;;;;;14.45;65.08;99370.44;5049536;28;20482;-22
2021/05/16 04:09:48;;;;;;;8.57;3.40;;;;;;;14.05;65.44;99349.56;5049393;28;20029;-21
2021/05/16 04:12:14;;;;;;;8.05;3.40;;;;;;;13.90;66.29;99369.03;5048937;28;20057;-23
2021/05/16 04:14:39;;;;;;;7.85;3.42;;;;;;;13.65;67.65;99373.16;5049521;28;20106;-24
2021/05/16 04:17:05;;;;;;;6.97;3.38;;;;;;;13.60;67.80;99362.38;5049421;28;20035;-24
2021/05/16 04:19:31;;;;;;;7.45;3.35;;;;;;;13.51;68.29;99371.16;5049156;28;20040;-22
2021/05/16 04:21:56;;;;;;;6.07;3.35;;;;;;;13.50;68.78;99373.00;5049170;28;20523;-21
2021/05/16 04:24:22;;;;;;;7.40;3.88;;;;;;;13.60;68.21;99378.47;5048848;28;20229;-21
2021/05/16 04:26:47;;;;;;;6.93;3.55;;;;;;;13.66;68.52;99380.13;5048989;28;20032;-21
2021/05/16 04:29:13;;;;;;;9.18;3.80;;;;;;;13.68;68.17;99377.19;5049169;28;20039;-22
2021/05/16 04:31:39;;;;;;;11.20;4.43;;;;;;;13.54;68.40;99358.06;5049217;28;20516;-21
2021/05/16 04:34:04;;;;;;;10.50;5.28;;;;;;;13.39;70.45;99374.00;5047840;28;20064;-21
2021/05/16 04:36:30;;;;;;;10.05;6.63;;;;;;;13.65;70.04;99364.31;5048670;28;20869;-20
2021/05/16 04:38:55;;;;;;;16.67;7.63;;;;;;;13.79;68.92;99378.91;5049155;28;20809;-21
2021/05/16 04:41:21;;;;;;;11.35;6.90;;;;;;;13.59;68.82;99363.47;5048664;28;20511;-22
2021/05/16 04:43:47;;;;;;;12.15;6.65;;;;;;;13.72;69.15;99377.50;5048723;28;20504;-21
2021/05/16 04:46:12;;;;;;;14.23;8.18;;;;;;;13.68;68.67;99368.34;5046542;28;20090;-21
2021/05/16 04:48:38;;;;;;;14.05;9.00;;;;;;;13.82;68.65;99382.94;5048634;28;20044;-27
2021/05/16 04:51:04;;;;;;;15.27;9.38;;;;;;;14.18;68.44;99372.41;5047464;28;20059;-22
2021/05/16 04:53:32;;;;;;;10.90;7.97;;;;;;;14.61;65.75;99354.44;5048774;28;20043;-21
2021/05/16 04:55:58;;;;;;;17.10;6.85;;;;;;;14.73;64.65;99365.75;5048578;28;20029;-21
2021/05/16 04:58:24;;;;;;;9.20;5.35;;;;;;;15.09;64.85;99373.91;5048507;28;20036;-22
2021/05/16 05:00:50;;;;;;;9.32;4.90;;;;;;;15.77;62.32;99376.41;5048655;28;20031;-22
2021/05/16 05:03:16;;;;;;;9.48;4.80;;;;;;;15.86;62.09;99377.47;5048635;28;20489;-22
2021/05/16 05:05:41;;;;;;;10.95;4.43;;;;;;;16.06;62.45;99371.25;5046964;28;20482;-21
2021/05/16 05:08:07;;;;;;;9.20;4.53;;;;;;;16.03;62.87;99379.84;5048412;28;20040;-21
2021/05/16 05:10:32;;;;;;;8.40;4.03;;;;;;;16.26;61.81;99367.72;5046754;28;20060;-22
2021/05/16 05:12:59;;;;;;;14.25;5.05;;;;;;;16.67;59.89;99351.41;5048672;28;20040;-21
2021/05/16 05:15:24;;;;;;;8.15;4.70;;;;;;;16.48;61.02;99372.75;5047033;28;20060;-22
2021/05/16 05:17:50;;;;;;;9.93;4.82;;;;;;;16.44;60.11;99369.00;5048173;28;20124;-22
2021/05/16 05:20:15;;;;;;;10.02;4.75;;;;;;;16.36;61.33;99363.38;5047805;28;20474;-22
2021/05/16 05:22:41;;;;;;;9.27;4.63;;;;;;;16.30;61.07;99367.97;5048388;28;20450;-21
2021/05/16 05:25:07;;;;;;;8.00;4.60;;;;;;;16.24;61.90;99366.34;5048087;28;20025;-21
2021/05/16 05:27:33;;;;;;;9.07;4.75;;;;;;;16.18;61.87;99372.84;5048178;28;20083;-21
2021/05/16 05:29:58;;;;;;;8.15;5.07;;;;;;;16.71;61.23;99389.34;5048132;28;20024;-22
2021/05/16 05:32:24;;;;;;;8.35;4.70;;;;;;;16.56;61.56;99384.03;5047727;28;20095;-21
2021/05/16 05:34:49;;;;;;;8.90;4.18;;;;;;;16.55;61.75;99387.78;5047993;28;20083;-24
2021/05/16 05:37:15;;;;;;;7.85;4.53;;;;;;;16.85;62.25;99398.47;5048054;28;20040;-22
2021/05/16 05:39:40;;;;;;;6.82;4.03;;;;;;;16.62;61.51;99385.63;5047542;28;20025;-21
2021/05/16 05:42:06;;;;;;;9.02;4.55;;;;;;;16.64;61.25;99397.72;5047684;28;20037;-21
2021/05/16 05:44:31;;;;;;;11.45;5.28;;;;;;;17.16;59.45;99400.19;5047537;28;20154;-29
2021/05/16 05:46:57;;;;;;;7.40;4.65;;;;;;;16.87;61.16;99404.38;5047575;28;20116;-22
2021/05/16 05:49:23;;;;;;;9.80;5.80;;;;;;;16.92;61.94;99367.72;5047572;28;20476;-22
2021/05/16 05:51:49;;;;;;;9.95;5.40;;;;;;;16.91;61.23;99393.06;5047272;28;20052;-21
2021/05/16 05:54:14;;;;;;;7.47;5.32;;;;;;;16.99;61.83;99403.25;5047192;28;20086;-21
2021/05/16 05:56:40;;;;;;;12.98;5.57;;;;;;;17.15;61.23;99403.97;5047505;28;20056;-21
2021/05/16 05:59:06;;;;;;;6.97;4.78;;;;;;;17.00;60.68;99411.06;5047947;28;20084;-21
2021/05/16 06:01:31;;;;;;;6.22;3.75;;;;;;;17.46;59.81;99421.56;5047481;28;20032;-22
2021/05/16 06:03:57;;;;;;;8.23;3.75;;;;;;;17.69;59.82;99421.94;5046033;28;20064;-21
2021/05/16 06:06:22;;;;;;;6.32;3.40;;;;;;;17.42;59.31;99411.63;5047474;28;20037;-21
2021/05/16 06:08:48;;;;;;;6.85;3.80;;;;;;;17.42;61.69;99428.59;5047210;28;20031;-21
2021/05/16 06:11:13;;;;;;;7.00;3.90;;;;;;;17.41;59.85;99428.91;5047362;28;20544;-21
2021/05/16 06:13:39;;;;;;;6.40;3.47;;;;;;;17.85;59.72;99426.16;5046714;28;20097;-23
2021/05/16 06:16:05;;;;;;;8.25;3.78;;;;;;;17.87;59.40;99428.56;5047106;28;20049;-22
2021/05/16 06:18:30;;;;;;;5.80;3.58;;;;;;;18.08;59.48;99429.19;5046856;28;20035;-22
2021/05/16 06:20:56;;;;;;;8.23;3.60;;;;;;;17.96;58.63;99408.00;5046897;28;20029;-22
2021/05/16 06:23:21;;;;;;;6.95;3.80;;;;;;;18.40;58.02;99412.41;5046725;28;20036;-22
2021/05/16 06:25:47;;;;;;;7.13;3.88;;;;;;;18.60;58.00;99413.28;5046987;28;20029;-22
2021/05/16 06:28:13;;;;;;;6.78;3.63;;;;;;;18.39;57.00;99424.31;5046772;28;20401;-22
2021/05/16 06:30:39;;;;;;;7.15;3.75;;;;;;;18.50;57.75;99429.59;5046826;28;20032;-22
2021/05/16 06:33:04;;;;;;;7.55;3.80;;;;;;;18.44;56.88;99426.94;5046835;28;20417;-21
2021/05/16 06:35:30;;;;;;;5.38;3.85;;;;;;;18.08;59.38;99418.38;5046761;28;20029;-20
2021/05/16 06:37:55;;;;;;;6.57;4.13;;;;;;;18.20;58.57;99416.13;5046953;28;20456;-22
2021/05/16 06:40:21;;;;;;;6.30;4.25;;;;;;;18.16;57.26;99414.28;5046912;28;20040;-22
2021/05/16 06:42:47;;;;;;;6.68;4.32;;;;;;;17.81;59.32;99419.69;5047216;28;20029;-21
2021/05/16 06:45:12;;;;;;;7.90;3.97;;;;;;;17.98;58.73;99422.00;5046917;28;20098;-21
2021/05/16 06:47:38;;;;;;;6.13;3.65;;;;;;;17.82;58.38;99415.91;5046820;28;20026;-20
2021/05/16 06:50:05;;;;;;;7.55;3.75;;;;;;;17.53;59.37;99423.13;5047149;28;20044;-22
2021/05/16 06:52:31;;;;;;;7.85;3.60;;;;;;;17.68;59.59;99437.31;5046714;28;20025;-21
2021/05/16 06:54:56;;;;;;;7.10;3.55;;;;;;;17.98;59.14;99438.19;5046737;28;20871;-22
2021/05/16 06:57:22;;;;;;;8.50;4.85;;;;;;;17.78;59.25;99438.34;5047398;28;20409;-22
2021/05/16 06:59:47;;;;;;;7.55;4.15;;;;;;;18.16;59.03;99433.16;5046862;28;20409;-22
2021/05/16 07:02:13;;;;;;;17.98;9.27;;;;;;;17.97;59.36;99416.88;5046788;28;20593;-21
2021/05/16 07:04:42;;;;;;;12.65;6.93;;;;;;;18.26;57.99;99411.47;5046645;28;20081;-21
2021/05/16 07:07:07;;;;;;;;;;;;;;;18.68;58.48;99418.03;5046828;28;20034;-22
2021/05/16 07:09:33;;;;;;;5.97;3.38;;;;;;;18.70;56.80;99423.97;5049830;28;19913;-22
2021/05/16 07:11:58;;;;;;;14.70;7.35;;;;;;;18.63;56.49;99418.09;5050603;28;20039;-21
2021/05/16 07:14:24;;;;;;;5.28;2.55;;;;;;;18.46;56.18;99413.16;5050244;28;20017;-22
2021/05/16 07:16:49;;;;;;;5.00;2.20;;;;;;;18.65;57.81;99411.34;5050595;28;20044;-21
2021/05/16 07:19:15;;;;;;;3.22;2.08;;;;;;;18.72;55.43;99396.66;5048931;28;20029;-21
2021/05/16 07:21:41;;;;;;;4.97;2.20;;;;;;;18.99;55.60;99415.78;5050434;28;20610;-21
2021/05/16 07:24:07;;;;;;;7.40;3.30;;;;;;;19.25;53.70;99413.53;5050513;28;20020;-22
2021/05/16 07:26:32;;;;;;;4.13;1.90;;;;;;;18.96;55.22;99416.38;5050199;28;20025;-22
2021/05/16 07:28:58;;;;;;;5.55;3.33;;;;;;;19.31;53.46;99405.34;5050752;28;20037;-21
2021/05/16 07:31:24;;;;;;;5.47;2.45;;;;;;;19.02;54.97;99403.59;5050178;28;20086;-21
2021/05/16 07:33:49;;;;;;;9.75;7.13;;;;;;;18.79;56.49;99422.25;5050270;28;20068;-21
2021/05/16 07:36:15;;;;;;;4.05;2.20;;;;;;;18.30;55.66;99420.63;5050189;28;20841;-21
2021/05/16 07:38:40;;;;;;;4.85;2.45;;;;;;;18.35;56.92;99415.16;5050133;28;20544;-21
2021/05/16 07:41:06;;;;;;;3.85;2.17;;;;;;;18.17;56.20;99421.28;5050117;28;20041;-21
2021/05/16 07:43:31;;;;;;;7.47;4.20;;;;;;;18.23;57.43;99409.38;5049971;28;20056;-22
2021/05/16 07:45:57;;;;;;;4.03;1.95;;;;;;;18.38;56.83;99422.69;5049934;28;20094;-22
2021/05/16 07:48:28;;;;;;;7.18;2.95;;;;;;;18.82;55.65;99410.09;5048461;28;20510;-21
2021/05/16 07:50:58;;;;;;;6.20;2.80;;;;;;;19.20;55.58;99405.50;5049825;28;20053;-23
2021/05/16 07:53:24;;;;;;;6.03;2.45;;;;;;;19.27;54.54;99416.75;5050257;28;20083;-24
2021/05/16 07:55:50;;;;;;;4.75;2.70;;;;;;;19.24;55.50;99406.50;5048683;28;20394;-24
2021/05/16 07:58:16;;;;;;;5.63;3.25;;;;;;;19.64;54.39;99417.81;5049757;28;20036;-23
2021/05/16 08:00:41;;;;;;;5.30;2.88;;;;;;;19.63;52.99;99399.97;5049785;28;20413;-24
2021/05/16 08:03:07;;;;;;;5.18;2.83;;;;;;;19.89;53.81;99404.22;5049418;28;20029;-23
2021/05/16 08:05:32;;;;;;;4.40;2.53;;;;;;;19.84;53.16;99421.34;5049469;28;20029;-23
2021/05/16 08:07:58;;;;;;;5.63;2.78;;;;;;;19.90;53.52;99409.34;5049598;28;20029;-23
2021/05/16 08:10:23;;;;;;;3.58;2.42;;;;;;;19.57;54.09;99403.84;5049504;28;20032;-23
2021/05/16 08:12:49;;;;;;;3.47;2.38;;;;;;;19.37;54.83;99413.09;5049489;28;20541;-23
2021/05/16 08:15:16;;;;;;;5.55;2.80;;;;;;;19.39;54.74;99407.38;5049775;28;20477;-22
2021/05/16 08:17:41;;;;;;;5.07;2.78;;;;;;;19.64;55.47;99407.00;5049436;28;20033;-23
2021/05/16 08:20:07;;;;;;;3.78;2.53;;;;;;;19.89;53.62;99394.19;5048112;28;20453;-24
2021/05/16 08:22:33;;;;;;;6.20;3.20;;;;;;;20.01;54.76;99396.41;5049361;28;20048;-25
2021/05/16 08:24:59;;;;;;;7.28;3.30;;;;;;;20.18;53.44;99403.97;5047930;28;20021;-23
2021/05/16 08:27:24;;;;;;;4.53;3.05;;;;;;;20.12;52.36;99407.84;5049298;28;20112;-24
2021/05/16 08:29:50;;;;;;;8.52;4.43;;;;;;;20.09;53.22;99405.75;5049117;28;20071;-22
2021/05/16 08:32:16;;;;;;;4.95;3.40;;;;;;;20.28;53.60;99407.28;5049456;28;20032;-23
2021/05/16 08:34:41;;;;;;;6.70;3.85;;;;;;;20.48;53.70;99397.97;5049010;28;20398;-24
2021/05/16 08:37:09;;;;;;;8.07;3.75;;;;;;;20.52;54.68;99395.47;5049097;28;20561;-23
2021/05/16 08:39:35;;;;;;;7.07;5.20;;;;;;;20.42;51.28;99401.88;5049176;28;20489;-23
2021/05/16 08:42:00;;;;;;;5.43;4.65;;;;;;;20.29;52.58;99381.03;5049012;28;20090;-23
2021/05/16 08:44:26;;;;;;;6.90;5.22;;;;;;;20.86;51.92;99392.34;5048698;28;20548;-24
2021/05/16 08:46:52;;;;;;;8.57;5.45;;;;;;;20.90;52.72;99389.03;5048841;28;20040;-23
2021/05/16 08:49:18;;;;;;;10.27;5.38;;;;;;;20.82;51.45;99394.06;5048320;28;20029;-23
2021/05/16 08:51:50;;;;;;;7.53;5.18;;;;;;;21.35;51.75;99389.94;5048748;28;20045;-23
2021/05/16 08:54:19;;;;;;;9.55;5.50;;;;;;;22.12;49.17;99389.94;5048528;28;20051;-23
2021/05/16 08:56:46;;;;;;;6.28;4.72;;;;;;;22.54;48.58;99385.03;5048899;28;20037;-23
2021/05/16 08:59:12;;;;;;;6.10;3.80;;;;;;;22.52;47.76;99379.13;5048879;28;20036;-23
2021/05/16 09:01:45;;;;;;;4.13;2.80;;;;;;;22.83;46.55;99385.25;5048380;28;20044;-23
2021/05/16 09:04:21;;;;;;;5.78;3.65;;;;;;;22.71;46.96;99385.06;5048392;28;20033;-22
2021/05/16 09:06:52;;;;;;;8.30;4.20;;;;;;;21.62;49.98;99378.19;5048334;28;20564;-23
2021/05/16 09:09:23;;;;;;;7.40;5.18;;;;;;;21.23;50.75;99393.16;5048563;28;20047;-23
2021/05/16 09:12:02;;;;;;;5.20;4.25;;;;;;;21.12;50.43;99399.91;5048350;28;20135;-23
2021/05/16 09:14:48;;;;;;;5.13;3.38;;;;;;;21.23;49.34;99374.19;5048263;28;20033;-23
2021/05/16 09:17:30;;;;;;;5.65;3.78;;;;;;;21.31;49.88;99388.13;5048141;28;20043;-24
2021/05/16 09:20:04;;;;;;;6.72;3.92;;;;;;;21.46;50.18;99390.50;5048284;28;20028;-23
2021/05/16 09:22:31;;;;;;;7.10;4.05;;;;;;;21.11;50.46;99378.56;5047780;28;20103;-23
2021/05/16 09:25:15;;;;;;;6.18;3.60;;;;;;;20.99;51.44;99392.63;5048211;28;20027;-23
2021/05/16 09:27:49;;;;;;;7.90;4.00;;;;;;;21.40;49.70;99380.84;5048409;28;20485;-23
2021/05/16 09:30:15;;;;;;;6.25;3.13;;;;;;;21.51;49.46;99393.09;5047845;28;20056;-20
2021/05/16 09:32:59;;;;;;;7.22;3.45;;;;;;;20.86;51.25;99381.50;5047629;28;20064;-20
2021/05/16 09:35:31;;;;;;;8.13;3.45;;;;;;;20.89;51.14;99363.03;5047937;28;20036;-21
2021/05/16 09:38:00;;;;;;;5.80;3.08;;;;;;;21.02;50.35;99381.16;5048114;28;20531;-21
2021/05/16 09:40:26;;;;;;;3.80;3.03;;;;;;;21.02;49.12;99362.19;5047834;28;20492;-21
2021/05/16 09:43:19;;;;;;;5.55;3.50;;;;;;;21.09;50.13;99376.16;5046505;28;20033;-21
2021/05/16 09:45:51;;;;;;;5.43;3.80;;;;;;;21.20;51.20;99372.06;5047825;28;20037;-21
2021/05/16 09:48:28;;;;;;;6.40;3.80;;;;;;;21.28;50.57;99374.06;5047575;28;20108;-20
2021/05/16 09:51:18;;;;;;;5.05;3.33;;;;;;;21.53;47.98;99369.16;5047649;28;20061;-21
2021/05/16 09:54:00;;;;;;;6.90;3.30;;;;;;;21.30;49.72;99365.63;5047454;28;20037;-20
2021/05/16 09:56:26;;;;;;;6.00;3.45;;;;;;;20.91;50.48;99363.53;5046045;28;20032;-21
2021/05/16 09:58:53;;;;;;;5.38;3.33;;;;;;;20.81;49.54;99349.09;5047548;28;20056;-20
2021/05/16 10:01:19;;;;;;;7.30;3.93;;;;;;;21.12;49.81;99359.25;5029692;28;20110;-20
2021/05/16 10:03:49;;;;;;;6.18;3.63;;;;;;;21.38;50.28;99358.66;5047474;28;20032;-19
2021/05/16 10:06:19;;;;;;;6.05;3.20;;;;;;;21.51;48.93;99349.69;5045622;28;20459;-21
2021/05/16 10:08:47;;;;;;;4.28;2.80;;;;;;;21.47;48.30;99348.69;5047564;28;20110;-21
2021/05/16 10:11:14;;;;;;;6.05;2.97;;;;;;;21.63;48.04;99363.50;5047235;28;20028;-21
2021/05/16 10:13:49;;;;;;;6.47;2.95;;;;;;;21.65;48.78;99358.56;5047440;28;20033;-21
2021/05/16 10:16:17;;;;;;;6.60;3.08;;;;;;;21.57;50.18;99353.06;5029649;28;20036;-20
2021/05/16 10:18:45;;;;;;;5.93;2.88;;;;;;;21.89;48.70;99348.50;5045812;28;20455;-21
2021/05/16 10:21:10;;;;;;;4.38;3.08;;;;;;;21.78;49.20;99356.06;5029616;28;20040;-21
2021/05/16 10:23:37;;;;;;;6.13;2.65;;;;;;;21.36;48.89;99353.53;5046012;28;20028;-20
2021/05/16 10:26:23;;;;;;;4.33;2.77;;;;;;;21.46;49.12;99336.25;5047107;28;20025;-21
2021/05/16 10:29:10;;;;;;;4.45;2.92;;;;;;;21.50;48.94;99352.72;5047261;28;20267;-21
2021/05/16 10:31:43;;;;;;;3.85;2.60;;;;;;;21.57;49.32;99356.59;5047137;28;20833;-21
2021/05/16 10:34:23;;;;;;;4.53;2.90;;;;;;;21.56;49.38;99333.28;5047088;28;20122;-21
2021/05/16 10:36:49;;;;;;;4.70;2.92;;;;;;;21.50;49.19;99352.72;5045815;28;20035;-21
2021/05/16 10:39:50;;;;;;;4.47;2.78;;;;;;;21.88;47.68;99342.22;5047257;28;20025;-20
2021/05/16 10:42:16;;;;;;;5.97;2.92;;;;;;;21.60;49.44;99331.56;5045164;28;20497;-20
2021/05/16 10:44:58;;;;;;;7.45;3.20;;;;;;;21.56;49.90;99344.16;5049977;28;20029;-20
2021/05/16 10:47:47;;;;;;;4.45;2.67;;;;;;;21.34;49.94;99336.78;5050893;28;20035;-20
2021/05/16 10:50:19;;;;;;;6.07;2.95;;;;;;;21.48;50.58;99335.97;5050569;28;20462;-21
2021/05/16 10:53:09;;;;;;;4.70;2.58;;;;;;;21.79;50.63;99331.34;5051338;28;20112;-20
2021/05/16 10:55:43;;;;;;;5.05;2.85;;;;;;;21.45;48.66;99330.03;5050840;28;20036;-21
2021/05/16 10:58:33;;;;;;;4.82;3.05;;;;;;;21.64;48.54;99326.31;5050949;28;20107;-21
2021/05/16 11:01:15;;;;;;;4.10;2.90;;;;;;;21.97;47.71;99310.50;5051034;28;20489;-21
2021/05/16 11:03:53;;;;;;;4.93;2.70;;;;;;;22.68;45.83;99309.63;5050704;28;20052;-20
2021/05/16 11:06:42;;;;;;;7.30;2.60;;;;;;;23.28;45.14;99310.75;5050337;28;20033;-20
2021/05/16 11:09:12;;;;;;;5.97;2.30;;;;;;;23.78;42.83;99295.78;5050179;28;20045;-22
2021/05/16 11:11:50;;;;;;;6.50;2.45;;;;;;;23.66;44.09;99310.84;5050982;28;20047;-21
2021/05/16 11:14:27;;;;;;;4.10;2.20;;;;;;;24.32;41.98;99287.84;5050719;28;20071;-21
2021/05/16 11:17:05;;;;;;;3.83;2.40;;;;;;;24.81;41.88;99304.53;5050545;28;20040;-21
2021/05/16 11:19:32;;;;;;;7.43;2.35;;;;;;;25.13;41.64;99291.28;5050801;28;20045;-21
2021/05/16 11:22:08;;;;;;;2.72;2.00;;;;;;;24.92;40.63;99299.47;5050539;28;20021;-21
2021/05/16 11:24:42;;;;;;;3.42;2.10;;;;;;;25.43;38.98;99296.63;5049081;28;20071;-20
2021/05/16 11:27:22;;;;;;;3.22;2.10;;;;;;;25.58;38.75;99296.00;5050193;28;20111;-21
2021/05/16 11:29:52;;;;;;;3.75;2.50;;;;;;;24.52;41.19;99258.25;5050025;28;20047;-20
2021/05/16 11:32:31;;;;;;;3.35;1.92;;;;;;;25.11;40.04;99281.81;5050256;28;20078;-20
2021/05/16 11:35:16;;;;;;;4.18;1.95;;;;;;;24.26;40.69;99272.81;5050419;28;20057;-21